Time;durP1;ratioP1;P1;durP2;ratioP2;P2;SDS_P1;SDS_P2;PMS_P1;PMS_P2;Temp;Humidity;BMP_temperature;BMP_pressure;BME280_temperature;BME280_humidity;BME280_pressure;Samples;Min_cycle;Max_cycle;Signal;HPM_P1;HPM_P2
2023/09/20 00:00:26;;;;;;;5.47;2.60;;;18.70;85.90;;;;;;5038194;28;20049;-29
2023/09/20 00:02:53;;;;;;;6.88;2.72;;;;;;;;;;5037598;28;20506;-29
2023/09/20 00:05:21;;;;;;;5.00;2.40;;;20.20;87.60;;;;;;5037532;28;20041;-29
2023/09/20 00:07:50;;;;;;;4.80;2.33;;;19.90;86.80;;;;;;5037073;28;20053;-29
2023/09/20 00:10:18;;;;;;;6.25;3.08;;;19.70;86.50;;;;;;5034368;28;20103;-29
2023/09/20 00:12:45;;;;;;;5.63;2.58;;;19.90;87.40;;;;;;5033989;28;20049;-29
2023/09/20 00:15:12;;;;;;;4.63;2.25;;;;;;;;;;5034496;28;20110;-30
2023/09/20 00:17:39;;;;;;;5.70;2.28;;;;;;;;;;5034276;28;20374;-29
2023/09/20 00:20:12;;;;;;;4.20;2.60;;;19.20;70.30;;;;;;5034504;28;20475;-29
2023/09/20 00:22:41;;;;;;;4.45;2.30;;;18.70;86.40;;;;;;5034394;28;20053;-29
2023/09/20 00:25:09;;;;;;;5.07;2.60;;;20.20;87.50;;;;;;5034756;28;20053;-29
2023/09/20 00:27:38;;;;;;;4.70;2.47;;;19.60;87.70;;;;;;5033868;28;20055;-29
2023/09/20 00:30:10;;;;;;;6.03;2.58;;;19.60;86.80;;;;;;5034382;28;20518;-29
2023/09/20 00:32:39;;;;;;;5.45;2.90;;;19.00;73.00;;;;;;5034538;28;20046;-29
2023/09/20 00:35:08;;;;;;;4.10;2.42;;;19.70;70.10;;;;;;5042409;28;20044;-31
2023/09/20 00:37:34;;;;;;;5.13;2.53;;;19.30;72.30;;;;;;5038766;28;20059;-29
2023/09/20 00:40:01;;;;;;;4.97;2.58;;;19.40;86.80;;;;;;5034061;28;20140;-29
2023/09/20 00:42:28;;;;;;;4.50;2.50;;;20.80;85.90;;;;;;5033769;28;20399;-29
2023/09/20 00:44:57;;;;;;;3.58;1.98;;;19.40;86.80;;;;;;5033402;28;20499;-29
2023/09/20 00:47:26;;;;;;;5.15;2.20;;;19.90;87.00;;;;;;5033806;28;20046;-28
2023/09/20 00:49:53;;;;;;;6.00;2.45;;;20.10;82.10;;;;;;5034110;28;20450;-29
2023/09/20 00:52:20;;;;;;;4.50;2.40;;;;;;;;;;5033299;28;20132;-30
2023/09/20 00:54:47;;;;;;;4.88;2.47;;;20.00;84.30;;;;;;5032445;28;20128;-29
2023/09/20 00:57:14;;;;;;;6.60;2.78;;;20.10;87.50;;;;;;5033809;28;20132;-29
2023/09/20 00:59:41;;;;;;;4.88;2.28;;;18.70;87.30;;;;;;5033947;28;20149;-29
2023/09/20 01:02:09;;;;;;;4.78;2.42;;;19.40;86.70;;;;;;5032778;28;20152;-29
2023/09/20 01:04:36;;;;;;;4.97;2.10;;;19.00;86.20;;;;;;5033489;28;20570;-29
2023/09/20 01:07:04;;;;;;;3.53;2.20;;;20.10;70.50;;;;;;5033388;28;20494;-29
2023/09/20 01:09:31;;;;;;;3.35;2.10;;;;;;;;;;5033445;28;20124;-29
2023/09/20 01:11:58;;;;;;;5.93;2.30;;;19.60;74.80;;;;;;5033252;28;20132;-29
2023/09/20 01:14:25;;;;;;;4.22;2.50;;;20.60;87.80;;;;;;5032117;28;20474;-29
2023/09/20 01:16:53;;;;;;;5.05;2.10;;;19.00;78.40;;;;;;5032970;28;20513;-30
2023/09/20 01:19:21;;;;;;;3.28;2.10;;;19.30;87.10;;;;;;5033038;28;20537;-29
2023/09/20 01:21:50;;;;;;;5.57;2.53;;;19.60;86.90;;;;;;5031512;28;20462;-29
2023/09/20 01:24:18;;;;;;;5.65;2.10;;;19.50;87.00;;;;;;5033169;28;20088;-30
2023/09/20 01:26:46;;;;;;;3.42;2.10;;;;;;;;;;5033122;28;20061;-29
2023/09/20 01:29:13;;;;;;;5.05;2.40;;;;;;;;;;5032830;28;20049;-29
2023/09/20 01:31:41;;;;;;;4.15;2.10;;;;;;;;;;5032561;28;20528;-29
2023/09/20 01:34:07;;;;;;;3.88;2.30;;;19.80;87.50;;;;;;5033649;28;20053;-29
2023/09/20 01:36:34;;;;;;;5.07;2.53;;;19.80;73.60;;;;;;5046330;28;20080;-29
2023/09/20 01:39:08;;;;;;;6.18;2.72;;;20.70;87.60;;;;;;5032815;28;20045;-29
2023/09/20 01:41:34;;;;;;;4.63;2.15;;;19.90;79.70;;;;;;5032866;28;20054;-30
2023/09/20 01:44:02;;;;;;;5.43;2.70;;;19.80;86.90;;;;;;5032880;28;20137;-29
2023/09/20 01:46:29;;;;;;;4.95;2.30;;;;;;;;;;5032721;28;20103;-30
2023/09/20 01:48:58;;;;;;;3.95;2.15;;;18.60;86.30;;;;;;5033049;28;20084;-29
2023/09/20 01:51:25;;;;;;;4.72;2.40;;;19.30;86.70;;;;;;5032696;28;20093;-29
2023/09/20 01:53:52;;;;;;;5.13;2.30;;;19.30;87.10;;;;;;5032753;28;20132;-29
2023/09/20 01:56:21;;;;;;;3.22;2.03;;;19.60;70.00;;;;;;5032461;28;20136;-31
2023/09/20 01:58:49;;;;;;;3.40;2.08;;;19.00;86.90;;;;;;5032464;28;20064;-29
2023/09/20 02:01:17;;;;;;;5.03;2.42;;;20.40;87.30;;;;;;5032469;28;20046;-29
2023/09/20 02:03:43;;;;;;;5.40;2.22;;;20.20;87.20;;;;;;5032502;28;20046;-29
2023/09/20 02:06:10;;;;;;;3.95;2.28;;;19.80;87.80;;;;;;5032455;28;20077;-29
2023/09/20 02:08:37;;;;;;;6.38;2.40;;;;;;;;;;5032112;28;20380;-30
2023/09/20 02:11:04;;;;;;;4.20;2.30;;;19.10;86.80;;;;;;5032442;28;20128;-29
2023/09/20 02:13:32;;;;;;;4.28;2.10;;;19.60;70.00;;;;;;5031972;28;20144;-31
2023/09/20 02:16:00;;;;;;;5.05;2.22;;;;;;;;;;5032076;28;20077;-30
2023/09/20 02:18:27;;;;;;;4.63;2.58;;;19.30;86.80;;;;;;5032389;28;20046;-29
2023/09/20 02:20:55;;;;;;;5.53;2.67;;;;;;;;;;5032423;28;20133;-31
2023/09/20 02:23:22;;;;;;;3.85;1.88;;;19.80;86.90;;;;;;5032009;28;20060;-32
2023/09/20 02:25:49;;;;;;;4.32;2.33;;;19.80;87.70;;;;;;5031283;28;20128;-32
2023/09/20 02:28:16;;;;;;;4.07;2.15;;;;;;;;;;5031824;28;20124;-31
2023/09/20 02:30:45;;;;;;;5.57;2.40;;;20.70;87.40;;;;;;5031607;28;20120;-32
2023/09/20 02:33:14;;;;;;;4.75;2.35;;;;;;;;;;5030875;28;20049;-31
2023/09/20 02:35:41;;;;;;;6.35;2.40;;;20.40;87.90;;;;;;5030377;28;20096;-32
2023/09/20 02:38:09;;;;;;;4.93;2.28;;;;;;;;;;5028440;28;20140;-30
2023/09/20 02:40:36;;;;;;;4.85;2.20;;;;;;;;;;5031440;28;20053;-32
2023/09/20 02:43:04;;;;;;;3.45;1.98;;;19.90;86.80;;;;;;5031292;28;20124;-32
2023/09/20 02:45:33;;;;;;;3.90;2.20;;;19.40;82.70;;;;;;5031578;28;20479;-32
2023/09/20 02:48:06;;;;;;;4.40;2.28;;;19.60;70.00;;;;;;5028948;28;20103;-31
2023/09/20 02:50:33;;;;;;;4.38;2.40;;;;;;;;;;5031661;28;20734;-32
2023/09/20 02:53:00;;;;;;;3.28;2.17;;;19.60;87.50;;;;;;5031261;28;20852;-32
2023/09/20 02:55:27;;;;;;;6.00;2.60;;;18.90;86.30;;;;;;5031944;28;20049;-32
2023/09/20 02:57:54;;;;;;;3.65;2.17;;;20.40;87.50;;;;;;5031628;28;20449;-32
2023/09/20 03:00:27;;;;;;;3.63;2.10;;;19.80;87.30;;;;;;5031716;28;20052;-32
2023/09/20 03:02:55;;;;;;;3.95;2.00;;;19.40;86.60;;;;;;5031536;28;20053;-32
2023/09/20 03:05:26;;;;;;;5.40;2.20;;;20.40;86.60;;;;;;5031674;28;20067;-32
2023/09/20 03:07:53;;;;;;;4.57;2.50;;;18.80;86.20;;;;;;5031324;28;20116;-32
2023/09/20 03:10:22;;;;;;;3.42;1.90;;;19.20;86.00;;;;;;5031727;28;20120;-32
2023/09/20 03:12:51;;;;;;;3.72;2.22;;;20.00;86.90;;;;;;5031513;28;20454;-32
2023/09/20 03:15:21;;;;;;;5.63;2.35;;;19.10;87.30;;;;;;5031596;28;20046;-32
2023/09/20 03:17:48;;;;;;;5.20;2.03;;;18.80;86.00;;;;;;5031508;28;20056;-32
2023/09/20 03:20:22;;;;;;;6.25;2.15;;;19.50;74.30;;;;;;5031734;28;20469;-32
2023/09/20 03:22:51;;;;;;;4.75;2.00;;;19.60;70.00;;;;;;5031526;28;20050;-32
2023/09/20 03:25:19;;;;;;;3.65;2.20;;;20.70;87.20;;;;;;5031575;28;20045;-32
2023/09/20 03:27:48;;;;;;;3.10;1.92;;;;;;;;;;5031237;28;20049;-32
2023/09/20 03:30:16;;;;;;;3.90;2.05;;;19.30;86.50;;;;;;5031471;28;20490;-32
2023/09/20 03:32:44;;;;;;;3.92;2.35;;;20.60;87.40;;;;;;5031523;28;20053;-32
2023/09/20 03:35:12;;;;;;;4.65;2.08;;;19.50;77.50;;;;;;5040605;28;20060;-32
2023/09/20 03:37:40;;;;;;;4.47;2.00;;;19.30;86.90;;;;;;5035678;28;20057;-32
2023/09/20 03:40:10;;;;;;;4.70;2.10;;;19.60;69.90;;;;;;5031246;28;20107;-32
2023/09/20 03:42:38;;;;;;;3.03;2.05;;;19.20;86.30;;;;;;5031173;28;20155;-32
2023/09/20 03:45:06;;;;;;;3.55;2.13;;;19.40;86.50;;;;;;5034174;28;20056;-32
2023/09/20 03:47:33;;;;;;;4.50;2.10;;;19.50;86.60;;;;;;5034833;28;20053;-32
2023/09/20 03:50:00;;;;;;;3.95;2.15;;;;;;;;;;5035131;28;20053;-31
2023/09/20 03:52:27;;;;;;;5.32;2.00;;;19.70;86.50;;;;;;5034559;28;20133;-32
2023/09/20 03:54:54;;;;;;;4.05;2.13;;;19.30;87.50;;;;;;5034909;28;20136;-32
2023/09/20 03:57:24;;;;;;;4.18;2.00;;;19.30;70.40;;;;;;5035444;28;20132;-32
2023/09/20 03:59:51;;;;;;;4.57;2.25;;;20.20;87.90;;;;;;5035001;28;20224;-32
2023/09/20 04:02:18;;;;;;;4.10;2.10;;;19.10;87.30;;;;;;5034510;28;20069;-29
2023/09/20 04:04:45;;;;;;;4.65;2.45;;;19.50;77.70;;;;;;5034762;28;20136;-30
2023/09/20 04:07:12;;;;;;;3.80;2.17;;;;;;;;;;5034904;28;20136;-29
2023/09/20 04:09:39;;;;;;;4.20;2.05;;;;;;;;;;5034936;28;20146;-30
2023/09/20 04:12:06;;;;;;;3.20;1.85;;;19.80;87.80;;;;;;5048610;28;20123;-29
2023/09/20 04:14:34;;;;;;;4.45;2.05;;;19.60;69.90;;;;;;5054764;28;20247;-29
2023/09/20 04:17:01;;;;;;;5.55;2.08;;;;;;;;;;5036981;28;20087;-30
2023/09/20 04:19:29;;;;;;;3.03;2.00;;;20.50;87.50;;;;;;5034559;28;20541;-29
2023/09/20 04:21:56;;;;;;;4.05;2.00;;;19.50;85.10;;;;;;5034479;28;20049;-29
2023/09/20 04:24:23;;;;;;;3.83;2.22;;;;;;;;;;5034624;28;20536;-30
2023/09/20 04:26:50;;;;;;;6.03;2.28;;;19.90;87.20;;;;;;5033917;28;20100;-29
2023/09/20 04:29:18;;;;;;;3.53;2.10;;;19.50;87.20;;;;;;5034292;28;20128;-29
2023/09/20 04:31:46;;;;;;;4.32;2.30;;;19.60;69.90;;;;;;5033686;28;20410;-30
2023/09/20 04:34:15;;;;;;;4.30;1.92;;;;;;;;;;5035304;28;20141;-30
2023/09/20 04:36:44;;;;;;;2.80;1.70;;;;;;;;;;5039886;28;20095;-30
2023/09/20 04:39:11;;;;;;;3.38;2.00;;;20.60;87.70;;;;;;5034343;28;20091;-29
2023/09/20 04:41:38;;;;;;;2.90;1.63;;;;;;;;;;5033771;28;20582;-31
2023/09/20 04:44:05;;;;;;;4.22;2.10;;;19.30;87.40;;;;;;5033780;28;20492;-32
2023/09/20 04:46:35;;;;;;;3.10;2.00;;;;;;;;;;5034083;28;20058;-31
2023/09/20 04:49:04;;;;;;;2.83;2.00;;;19.20;80.20;;;;;;5033805;28;20049;-31
2023/09/20 04:51:31;;;;;;;3.75;2.15;;;;;;;;;;5033661;28;20132;-28
2023/09/20 04:53:58;;;;;;;3.85;2.20;;;20.10;81.20;;;;;;5033684;28;20132;-31
2023/09/20 04:56:27;;;;;;;3.85;2.15;;;20.00;87.90;;;;;;5033378;28;20128;-32
2023/09/20 04:58:57;;;;;;;4.15;2.00;;;;;;;;;;5033724;28;20449;-31
2023/09/20 05:01:24;;;;;;;3.45;2.00;;;18.80;72.00;;;;;;5033648;28;20053;-31
2023/09/20 05:03:51;;;;;;;3.30;1.90;;;;;;;;;;5033396;28;20493;-31
2023/09/20 05:06:19;;;;;;;3.67;2.00;;;20.30;87.40;;;;;;5033357;28;20473;-31
2023/09/20 05:08:46;;;;;;;3.15;1.90;;;20.50;87.70;;;;;;5033757;28;20129;-32
2023/09/20 05:11:13;;;;;;;5.05;2.22;;;;;;;;;;5033229;28;20136;-31
2023/09/20 05:13:40;;;;;;;3.50;2.00;;;19.60;87.00;;;;;;5033602;28;20052;-32
2023/09/20 05:16:07;;;;;;;3.10;1.80;;;19.20;81.60;;;;;;5033285;28;20048;-31
2023/09/20 05:18:34;;;;;;;5.40;2.00;;;19.30;86.90;;;;;;5033315;28;20129;-31
2023/09/20 05:21:01;;;;;;;2.92;1.85;;;19.60;69.90;;;;;;5033544;28;20454;-31
2023/09/20 05:23:29;;;;;;;4.35;1.80;;;20.40;70.50;;;;;;5033502;28;20136;-31
2023/09/20 05:25:56;;;;;;;2.58;1.83;;;19.10;75.90;;;;;;5033096;28;20052;-31
2023/09/20 05:28:25;;;;;;;3.03;1.90;;;;;;;;;;5033172;28;20057;-31
2023/09/20 05:30:52;;;;;;;3.58;1.80;;;19.70;78.30;;;;;;5032890;28;20514;-32
2023/09/20 05:33:20;;;;;;;6.25;2.13;;;;;;;;;;5032502;28;20132;-29
2023/09/20 05:35:47;;;;;;;2.40;1.60;;;20.00;87.60;;;;;;5035097;28;20049;-31
2023/09/20 05:38:15;;;;;;;2.90;1.70;;;19.20;87.50;;;;;;5032206;28;20049;-31
2023/09/20 05:40:44;;;;;;;3.05;1.80;;;19.90;87.30;;;;;;5033189;28;20292;-31
2023/09/20 05:43:10;;;;;;;3.50;2.10;;;19.50;86.90;;;;;;5032494;28;20054;-32
2023/09/20 05:45:37;;;;;;;3.28;1.90;;;19.80;87.00;;;;;;5033145;28;20136;-31
2023/09/20 05:48:05;;;;;;;3.05;1.80;;;18.70;75.60;;;;;;5032606;28;20128;-31
2023/09/20 05:50:34;;;;;;;3.25;2.17;;;;;;;;;;5033063;28;20046;-30
2023/09/20 05:53:01;;;;;;;2.60;1.90;;;20.00;87.10;;;;;;5032240;28;20400;-31
2023/09/20 05:55:31;;;;;;;2.70;1.80;;;19.50;87.20;;;;;;5032639;28;20126;-32
2023/09/20 05:58:00;;;;;;;4.30;2.00;;;19.60;80.50;;;;;;5032788;28;20077;-31
2023/09/20 06:00:29;;;;;;;3.05;2.10;;;19.90;87.90;;;;;;5032650;28;20049;-31
2023/09/20 06:02:56;;;;;;;2.60;1.88;;;;;;;;;;5032368;28;20049;-32
2023/09/20 06:05:24;;;;;;;4.65;2.03;;;19.50;86.60;;;;;;5032283;28;20053;-31
2023/09/20 06:07:51;;;;;;;3.58;1.98;;;19.90;86.30;;;;;;5031484;28;20053;-31
2023/09/20 06:10:18;;;;;;;3.78;1.75;;;18.90;86.60;;;;;;5032533;28;20041;-32
2023/09/20 06:12:45;;;;;;;3.33;1.83;;;19.20;86.70;;;;;;5031182;28;20462;-32
2023/09/20 06:15:13;;;;;;;2.17;1.73;;;19.10;86.70;;;;;;5031509;28;20037;-32
2023/09/20 06:17:42;;;;;;;3.58;1.77;;;;;;;;;;5031950;28;20053;-31
2023/09/20 06:20:12;;;;;;;3.13;1.80;;;19.20;86.50;;;;;;5032239;28;20045;-31
2023/09/20 06:22:38;;;;;;;5.53;2.05;;;19.30;86.70;;;;;;5023343;28;20056;-32
2023/09/20 06:25:06;;;;;;;3.28;1.70;;;20.10;86.30;;;;;;5043401;28;20115;-32
2023/09/20 06:27:33;;;;;;;3.35;1.92;;;19.20;76.40;;;;;;5052056;28;20135;-31
2023/09/20 06:30:00;;;;;;;2.90;1.70;;;19.80;87.20;;;;;;5028411;28;20140;-31
2023/09/20 06:32:30;;;;;;;3.72;2.22;;;19.50;69.90;;;;;;5032124;28;20053;-32
2023/09/20 06:34:57;;;;;;;2.40;1.80;;;19.80;87.40;;;;;;5030602;28;20049;-32
2023/09/20 06:37:24;;;;;;;2.30;1.70;;;;;;;;;;5016534;28;20466;-31
2023/09/20 06:39:51;;;;;;;2.92;1.73;;;19.90;86.90;;;;;;5026266;28;20141;-31
2023/09/20 06:42:18;;;;;;;3.10;1.73;;;20.40;87.40;;;;;;5031226;28;20051;-31
2023/09/20 06:44:45;;;;;;;2.47;1.80;;;20.40;87.10;;;;;;5031418;28;20128;-32
2023/09/20 06:47:12;;;;;;;2.50;1.60;;;19.40;75.90;;;;;;5032092;28;20136;-31
2023/09/20 06:49:40;;;;;;;6.13;1.90;;;19.40;87.10;;;;;;5031878;28;20582;-32
2023/09/20 06:52:06;;;;;;;3.22;1.88;;;19.70;86.30;;;;;;5031583;28;20132;-32
2023/09/20 06:54:35;;;;;;;3.00;1.48;;;;;;;;;;5032052;28;20057;-31
2023/09/20 06:57:03;;;;;;;3.78;1.80;;;20.10;86.60;;;;;;5031826;28;20055;-32
2023/09/20 06:59:31;;;;;;;4.65;1.80;;;20.90;73.60;;;;;;5030914;28;20049;-31
2023/09/20 07:01:58;;;;;;;3.80;2.15;;;;;;;;;;5031198;28;20110;-31
2023/09/20 07:04:25;;;;;;;3.22;1.60;;;21.00;86.60;;;;;;5031095;28;20041;-32
2023/09/20 07:06:54;;;;;;;3.95;1.60;;;20.20;74.10;;;;;;5031637;28;20053;-31
2023/09/20 07:09:21;;;;;;;3.38;1.70;;;20.20;79.90;;;;;;5031945;28;20128;-32
2023/09/20 07:11:48;;;;;;;3.95;1.90;;;20.20;85.60;;;;;;5030754;28;20041;-32
2023/09/20 07:14:20;;;;;;;2.28;1.58;;;19.70;85.50;;;;;;5030700;28;20140;-32
2023/09/20 07:16:48;;;;;;;3.22;1.77;;;20.10;82.60;;;;;;5026399;28;20077;-32
2023/09/20 07:19:17;;;;;;;2.17;1.60;;;;;;;;;;5031154;28;20081;-31
2023/09/20 07:21:44;;;;;;;3.03;1.80;;;20.60;80.00;;;;;;5035542;28;20046;-32
2023/09/20 07:24:14;;;;;;;3.33;1.75;;;21.10;85.60;;;;;;5035621;28;20069;-32
2023/09/20 07:26:43;;;;;;;3.75;1.90;;;20.70;68.60;;;;;;5035492;28;20049;-31
2023/09/20 07:29:13;;;;;;;4.45;1.70;;;20.10;84.80;;;;;;5034943;28;20406;-32
2023/09/20 07:31:40;;;;;;;3.90;1.70;;;21.00;85.50;;;;;;5035624;28;20055;-32
2023/09/20 07:34:08;;;;;;;3.28;2.05;;;20.60;73.80;;;;;;5035663;28;20096;-31
2023/09/20 07:36:37;;;;;;;3.00;1.52;;;20.70;79.50;;;;;;5048683;28;20129;-32
2023/09/20 07:39:05;;;;;;;3.08;1.70;;;20.90;83.50;;;;;;5035050;28;20053;-32
2023/09/20 07:41:33;;;;;;;3.08;1.98;;;20.50;84.70;;;;;;5035611;28;20049;-31
2023/09/20 07:44:00;;;;;;;3.50;1.80;;;21.70;85.40;;;;;;5033968;28;20076;-32
2023/09/20 07:46:33;;;;;;;2.63;1.45;;;;;;;;;;5034325;28;20056;-29
2023/09/20 07:49:09;;;;;;;4.38;1.90;;;21.50;85.00;;;;;;5029823;28;20045;-29
2023/09/20 07:51:36;;;;;;;2.55;1.52;;;;;;;;;;5034471;28;20495;-30
2023/09/20 07:54:03;;;;;;;2.85;1.60;;;21.20;84.80;;;;;;5034377;28;20120;-30
2023/09/20 07:56:30;;;;;;;2.65;1.40;;;20.90;85.00;;;;;;5022915;28;20080;-29
2023/09/20 07:58:58;;;;;;;3.45;1.95;;;22.00;85.30;;;;;;5023564;28;20148;-29
2023/09/20 08:01:29;;;;;;;3.97;1.70;;;20.60;84.40;;;;;;5015566;28;20143;-29
2023/09/20 08:03:58;;;;;;;2.17;1.70;;;;;;;;;;5031726;28;20107;-30
2023/09/20 08:06:26;;;;;;;4.03;1.85;;;22.10;85.00;;;;;;5031258;28;20041;-29
2023/09/20 08:08:52;;;;;;;3.47;1.80;;;21.30;85.10;;;;;;5031937;28;20057;-30
2023/09/20 08:11:19;;;;;;;5.25;1.80;;;20.50;84.70;;;;;;5034127;28;20143;-29
2023/09/20 08:13:46;;;;;;;3.13;1.95;;;;;;;;;;5033532;28;20072;-30
2023/09/20 08:16:15;;;;;;;3.00;1.70;;;20.40;85.00;;;;;;5031256;28;20054;-30
2023/09/20 08:21:29;;;;;;;2.90;1.80;;;20.40;84.80;;;;;;5029826;28;20503;-30
2023/09/20 08:59:49;;;;;;;5.23;1.87;;;20.70;85.40;;;;;;5034064;28;20049;-32
2023/09/20 09:02:16;;;;;;;4.28;1.65;;;20.80;69.00;;;;;;5033152;28;20124;-31
2023/09/20 09:04:45;;;;;;;4.13;1.95;;;21.20;85.50;;;;;;5033045;28;20124;-32
2023/09/20 09:07:12;;;;;;;4.93;1.90;;;21.20;76.60;;;;;;5032676;28;20046;-29
2023/09/20 09:09:39;;;;;;;3.47;2.08;;;21.30;85.20;;;;;;5031513;28;20049;-30
2023/09/20 09:12:06;;;;;;;3.88;1.83;;;;;;;;;;5032668;28;20117;-27
2023/09/20 09:14:35;;;;;;;3.58;1.83;;;20.70;85.20;;;;;;5033556;28;20073;-27
2023/09/20 09:17:02;;;;;;;4.43;1.90;;;;;;;;;;5030237;28;20045;-29
2023/09/20 09:19:29;;;;;;;6.35;1.80;;;21.70;85.60;;;;;;5033345;28;20516;-27
2023/09/20 09:21:58;;;;;;;5.38;1.88;;;20.70;68.60;;;;;;5024210;28;20058;-29
2023/09/20 09:24:24;;;;;;;3.35;1.80;;;20.30;75.90;;;;;;5020345;28;20133;-28
2023/09/20 09:26:55;;;;;;;4.22;1.80;;;21.00;85.30;;;;;;5025656;28;20132;-28
2023/09/20 09:29:22;;;;;;;3.70;1.98;;;20.80;86.00;;;;;;5033300;28;20083;-27
2023/09/20 09:31:49;;;;;;;3.78;2.28;;;20.70;78.90;;;;;;5033198;28;20130;-28
2023/09/20 09:34:18;;;;;;;3.05;1.90;;;20.90;85.60;;;;;;5025904;28;20422;-27
2023/09/20 09:36:45;;;;;;;4.28;2.10;;;21.50;85.50;;;;;;5044540;28;20055;-28
2023/09/20 09:39:14;;;;;;;5.68;1.95;;;20.70;68.70;;;;;;5032680;28;20080;-30
2023/09/20 09:41:42;;;;;;;5.30;1.70;;;21.10;81.50;;;;;;5032284;28;20515;-30
2023/09/20 09:44:10;;;;;;;3.80;2.00;;;;;;;;;;5029970;28;20478;-28
2023/09/20 09:46:38;;;;;;;3.38;1.70;;;21.40;73.40;;;;;;5031528;28;20473;-30
2023/09/20 09:49:10;;;;;;;3.67;1.83;;;20.90;68.80;;;;;;5031412;28;20506;-30
2023/09/20 09:51:40;;;;;;;5.07;1.83;;;20.70;68.70;;;;;;5031874;28;20041;-30
2023/09/20 09:54:06;;;;;;;4.45;1.73;;;19.60;84.80;;;;;;5032458;28;20048;-30
2023/09/20 09:56:34;;;;;;;3.08;1.92;;;20.70;68.80;;;;;;5032190;28;20128;-29
2023/09/20 09:59:01;;;;;;;2.75;1.90;;;;;;;;;;5032171;28;20451;-30
2023/09/20 10:01:28;;;;;;;5.30;1.83;;;20.20;85.00;;;;;;5031610;28;20144;-29
2023/09/20 10:03:55;;;;;;;5.75;2.38;;;;;;;;;;5025697;28;20045;-28
2023/09/20 10:06:22;;;;;;;4.63;1.80;;;21.20;85.50;;;;;;5032054;28;20129;-30
2023/09/20 10:08:52;;;;;;;3.75;1.73;;;20.70;68.80;;;;;;5032278;28;20526;-28
2023/09/20 10:11:19;;;;;;;5.13;1.98;;;20.60;85.50;;;;;;5032508;28;20141;-27
2023/09/20 10:13:50;;;;;;;3.90;1.80;;;20.90;68.70;;;;;;5031725;28;20124;-27
2023/09/20 10:16:18;;;;;;;4.60;1.85;;;21.20;85.20;;;;;;5032338;28;20095;-27
2023/09/20 10:18:51;;;;;;;4.78;1.90;;;20.60;85.50;;;;;;5032815;28;20092;-27
2023/09/20 10:21:21;;;;;;;4.15;1.90;;;20.90;68.50;;;;;;5032092;28;20475;-27
2023/09/20 10:23:48;;;;;;;3.20;1.77;;;21.30;85.80;;;;;;5031626;28;20133;-27
2023/09/20 10:26:15;;;;;;;2.65;1.85;;;21.40;81.80;;;;;;5032118;28;20045;-28
2023/09/20 10:28:42;;;;;;;5.22;2.20;;;;;;;;;;5031964;28;20056;-29
2023/09/20 10:31:14;;;;;;;2.85;1.73;;;21.60;85.00;;;;;;5031604;28;20056;-29
2023/09/20 10:33:48;;;;;;;3.85;2.25;;;21.60;85.80;;;;;;5031837;28;20076;-29
2023/09/20 10:36:19;;;;;;;3.55;1.83;;;21.10;68.40;;;;;;5031194;28;20124;-29
2023/09/20 10:38:46;;;;;;;3.88;1.83;;;21.00;85.00;;;;;;5031601;28;20608;-30
2023/09/20 10:41:13;;;;;;;3.03;1.80;;;20.80;80.60;;;;;;5031234;28;20543;-29
2023/09/20 10:43:51;;;;;;;3.78;1.70;;;21.40;85.60;;;;;;5031642;28;20059;-29
2023/09/20 10:46:22;;;;;;;3.15;1.60;;;20.80;84.80;;;;;;5029301;28;20099;-29
2023/09/20 10:48:50;;;;;;;3.83;1.73;;;21.00;68.50;;;;;;5031583;28;20509;-29
2023/09/20 10:51:41;;;;;;;3.50;1.70;;;21.00;68.50;;;;;;5029208;28;20049;-31
2023/09/20 10:54:25;;;;;;;2.70;1.67;;;21.30;85.10;;;;;;5026410;28;20125;-31
2023/09/20 10:57:05;;;;;;;5.07;1.85;;;20.50;85.00;;;;;;5045932;28;20050;-31
2023/09/20 10:59:32;;;;;;;2.97;1.55;;;21.60;84.70;;;;;;5031501;28;20045;-31
2023/09/20 11:02:05;;;;;;;3.30;1.60;;;21.20;85.90;;;;;;5032030;28;20132;-31
2023/09/20 11:04:32;;;;;;;5.63;1.80;;;21.50;83.30;;;;;;5031925;28;20045;-32
2023/09/20 11:07:02;;;;;;;2.78;1.67;;;;;;;;;;5031966;28;20049;-30
2023/09/20 11:09:31;;;;;;;3.28;1.80;;;20.90;85.10;;;;;;5031429;28;20414;-31
2023/09/20 11:12:03;;;;;;;3.63;1.90;;;20.90;68.70;;;;;;5031718;28;20049;-30
2023/09/20 11:14:31;;;;;;;2.75;1.63;;;;;;;;;;5030619;28;20521;-31
2023/09/20 11:16:58;;;;;;;2.53;1.60;;;;;;;;;;5031159;28;20076;-30
2023/09/20 11:19:26;;;;;;;2.85;1.60;;;21.20;86.10;;;;;;5031099;28;20596;-29
2023/09/20 11:21:53;;;;;;;3.33;1.80;;;20.70;70.80;;;;;;5028844;28;20132;-29
2023/09/20 11:24:20;;;;;;;2.47;1.60;;;20.40;79.90;;;;;;5031057;28;20057;-29
2023/09/20 11:26:48;;;;;;;2.65;1.48;;;19.90;84.60;;;;;;5030385;28;20049;-29
2023/09/20 11:29:16;;;;;;;2.20;1.50;;;21.60;85.60;;;;;;5031094;28;20042;-29
2023/09/20 11:31:44;;;;;;;1.95;1.42;;;20.80;86.10;;;;;;5031531;28;20049;-29
2023/09/20 11:34:12;;;;;;;3.78;1.48;;;19.60;84.70;;;;;;5032236;28;20132;-29
2023/09/20 11:36:43;;;;;;;3.40;1.60;;;20.90;76.20;;;;;;5037675;28;20049;-30
2023/09/20 11:39:09;;;;;;;2.70;1.80;;;21.80;86.00;;;;;;5031575;28;20103;-29
2023/09/20 11:41:37;;;;;;;2.80;1.70;;;;;;;;;;5030575;28;20048;-31
2023/09/20 11:44:07;;;;;;;4.70;1.50;;;20.80;69.00;;;;;;5031314;28;20081;-31
2023/09/20 11:46:34;;;;;;;3.30;1.70;;;;;;;;;;5031166;28;20088;-31
2023/09/20 11:49:01;;;;;;;2.88;1.70;;;20.30;76.50;;;;;;5031560;28;20133;-30
2023/09/20 11:51:30;;;;;;;2.63;1.58;;;20.50;85.60;;;;;;5031472;28;20077;-29
2023/09/20 11:53:59;;;;;;;3.38;1.67;;;20.70;69.00;;;;;;5031345;28;20061;-31
2023/09/20 11:56:29;;;;;;;2.70;1.70;;;21.10;85.60;;;;;;5031236;28;20052;-29
2023/09/20 11:58:58;;;;;;;1.77;1.35;;;20.00;85.20;;;;;;5031554;28;20049;-29
2023/09/20 12:01:25;;;;;;;2.33;1.50;;;21.10;86.00;;;;;;5031271;28;20129;-29
2023/09/20 12:03:51;;;;;;;2.35;1.83;;;21.20;85.10;;;;;;5031441;28;20132;-28
2023/09/20 12:06:18;;;;;;;3.30;1.60;;;21.70;86.00;;;;;;5034277;28;20057;-31
2023/09/20 12:08:46;;;;;;;3.80;1.77;;;;;;;;;;5034745;28;20128;-31
2023/09/20 12:11:14;;;;;;;3.10;1.65;;;20.40;75.10;;;;;;5035176;28;20041;-31
2023/09/20 12:13:43;;;;;;;3.28;1.70;;;;;;;;;;5034475;28;20049;-31
2023/09/20 12:16:09;;;;;;;2.22;1.63;;;20.70;77.10;;;;;;5034695;28;20498;-31
2023/09/20 12:18:37;;;;;;;2.53;1.58;;;20.40;85.20;;;;;;5034433;28;20136;-31
2023/09/20 12:21:04;;;;;;;2.05;1.60;;;20.70;85.40;;;;;;5034565;28;20056;-31
2023/09/20 12:23:31;;;;;;;3.08;1.70;;;20.60;85.70;;;;;;5034410;28;20503;-31
2023/09/20 12:25:58;;;;;;;2.33;1.40;;;;;;;;;;5034415;28;20137;-30
2023/09/20 12:28:26;;;;;;;2.40;1.60;;;19.70;84.90;;;;;;5034533;28;20128;-31
2023/09/20 12:30:53;;;;;;;1.77;1.40;;;21.20;86.00;;;;;;5033982;28;20087;-31
2023/09/20 12:33:20;;;;;;;2.63;1.70;;;;;;;;;;5034344;28;20148;-30
2023/09/20 12:35:47;;;;;;;1.83;1.33;;;20.90;85.30;;;;;;5048361;28;20128;-31
2023/09/20 12:38:14;;;;;;;4.25;1.63;;;;;;;;;;5033880;28;20053;-30
2023/09/20 12:40:41;;;;;;;2.25;1.50;;;20.60;85.10;;;;;;5033882;28;20579;-31
2023/09/20 12:43:07;;;;;;;2.97;1.63;;;20.70;85.40;;;;;;5034205;28;20132;-31
2023/09/20 12:45:35;;;;;;;2.40;1.60;;;20.80;69.00;;;;;;5034082;28;20549;-30
2023/09/20 12:48:02;;;;;;;2.17;1.50;;;;;;;;;;5033598;28;20132;-30
2023/09/20 12:50:33;;;;;;;2.17;1.58;;;20.20;85.80;;;;;;5034200;28;20566;-29
2023/09/20 12:53:00;;;;;;;2.85;1.65;;;;;;;;;;5033648;28;20053;-29
2023/09/20 12:55:27;;;;;;;2.00;1.50;;;21.10;73.10;;;;;;5033806;28;20586;-30
2023/09/20 12:57:54;;;;;;;2.42;1.52;;;20.90;85.40;;;;;;5033875;28;20103;-29
2023/09/20 13:00:21;;;;;;;3.38;1.73;;;;;;;;;;5033751;28;20049;-30
2023/09/20 13:02:49;;;;;;;2.45;1.70;;;21.80;86.10;;;;;;5033275;28;20099;-30
2023/09/20 13:05:16;;;;;;;5.93;2.00;;;21.20;85.80;;;;;;5033851;28;20132;-30
2023/09/20 13:07:43;;;;;;;3.30;1.70;;;;;;;;;;5033364;28;20048;-30
2023/09/20 13:10:13;;;;;;;2.30;1.50;;;20.50;85.50;;;;;;5033838;28;20053;-29
2023/09/20 13:12:40;;;;;;;3.85;1.67;;;20.70;86.00;;;;;;5033695;28;20069;-29
2023/09/20 13:15:12;;;;;;;2.47;1.55;;;20.80;69.00;;;;;;5033486;28;20518;-30
2023/09/20 13:17:40;;;;;;;2.55;1.80;;;;;;;;;;5033221;28;20046;-31
2023/09/20 13:20:12;;;;;;;2.03;1.60;;;20.50;85.40;;;;;;5032896;28;20058;-31
2023/09/20 13:22:39;;;;;;;3.58;1.80;;;21.90;85.90;;;;;;5031040;28;20040;-31
2023/09/20 13:25:08;;;;;;;2.28;1.63;;;21.10;72.80;;;;;;5032819;28;20129;-31
2023/09/20 13:27:35;;;;;;;2.92;1.45;;;21.00;75.30;;;;;;5032202;28;20055;-32
2023/09/20 13:30:04;;;;;;;3.03;1.63;;;;;;;;;;5032135;28;20045;-30
2023/09/20 13:32:31;;;;;;;3.40;1.92;;;;;;;;;;5029732;28;20403;-32
2023/09/20 13:34:58;;;;;;;2.17;1.70;;;20.90;86.00;;;;;;5032743;28;20148;-31
2023/09/20 13:37:27;;;;;;;2.25;1.60;;;20.90;69.00;;;;;;5029361;28;20185;-31
2023/09/20 13:39:54;;;;;;;3.25;1.63;;;21.00;85.30;;;;;;5030113;28;20049;-31
2023/09/20 13:42:21;;;;;;;2.45;1.85;;;;;;;;;;5032452;28;20041;-29
2023/09/20 13:44:50;;;;;;;2.22;1.60;;;20.30;77.00;;;;;;5032375;28;20076;-29
2023/09/20 13:47:18;;;;;;;2.65;1.80;;;20.50;85.40;;;;;;5032403;28;20081;-30
2023/09/20 13:49:45;;;;;;;2.50;1.67;;;20.70;85.30;;;;;;5031983;28;20605;-29
2023/09/20 13:52:12;;;;;;;2.05;1.70;;;;;;;;;;5032088;28;20133;-30